sensor_id;sensor_type;location;lat;lon;timestamp;P1;durP1;ratioP1;P2;durP2;ratioP2
21354;SDS011;10835;50.148;19.760;2023-06-22T00:00:39;12.73;;;6.25;;
21354;SDS011;10835;50.148;19.760;2023-06-22T00:03:08;9.38;;;6.35;;
21354;SDS011;10835;50.148;19.760;2023-06-22T00:05:37;10.75;;;5.82;;
21354;SDS011;10835;50.148;19.760;2023-06-22T00:08:05;10.68;;;4.75;;
21354;SDS011;10835;50.148;19.760;2023-06-22T00:10:34;11.95;;;5.38;;
21354;SDS011;10835;50.148;19.760;2023-06-22T00:13:02;8.00;;;5.30;;
21354;SDS011;10835;50.148;19.760;2023-06-22T00:15:32;8.98;;;5.35;;
21354;SDS011;10835;50.148;19.760;2023-06-22T00:18:01;8.48;;;5.43;;
21354;SDS011;10835;50.148;19.760;2023-06-22T00:20:29;12.50;;;5.20;;
21354;SDS011;10835;50.148;19.760;2023-06-22T00:22:59;6.38;;;4.32;;
21354;SDS011;10835;50.148;19.760;2023-06-22T00:25:27;7.10;;;5.00;;
21354;SDS011;10835;50.148;19.760;2023-06-22T00:27:56;7.68;;;5.18;;
21354;SDS011;10835;50.148;19.760;2023-06-22T00:30:24;7.97;;;5.35;;
21354;SDS011;10835;50.148;19.760;2023-06-22T00:32:57;7.82;;;5.03;;
21354;SDS011;10835;50.148;19.760;2023-06-22T00:35:26;7.93;;;4.45;;
21354;SDS011;10835;50.148;19.760;2023-06-22T00:37:55;8.00;;;5.65;;
21354;SDS011;10835;50.148;19.760;2023-06-22T00:40:28;7.57;;;5.03;;
21354;SDS011;10835;50.148;19.760;2023-06-22T00:42:58;7.38;;;4.78;;
21354;SDS011;10835;50.148;19.760;2023-06-22T00:45:26;6.00;;;4.28;;
21354;SDS011;10835;50.148;19.760;2023-06-22T00:47:55;9.77;;;5.50;;
21354;SDS011;10835;50.148;19.760;2023-06-22T00:50:26;9.43;;;5.50;;
21354;SDS011;10835;50.148;19.760;2023-06-22T00:53:00;8.18;;;5.20;;
21354;SDS011;10835;50.148;19.760;2023-06-22T00:55:31;7.03;;;4.80;;
21354;SDS011;10835;50.148;19.760;2023-06-22T00:58:03;6.35;;;4.82;;
21354;SDS011;10835;50.148;19.760;2023-06-22T01:00:34;9.25;;;6.40;;
21354;SDS011;10835;50.148;19.760;2023-06-22T01:03:04;11.35;;;6.07;;
21354;SDS011;10835;50.148;19.760;2023-06-22T01:05:36;10.13;;;5.43;;
21354;SDS011;10835;50.148;19.760;2023-06-22T01:08:08;13.05;;;5.45;;
21354;SDS011;10835;50.148;19.760;2023-06-22T01:10:50;10.30;;;5.68;;
21354;SDS011;10835;50.148;19.760;2023-06-22T01:13:26;7.57;;;5.10;;
21354;SDS011;10835;50.148;19.760;2023-06-22T01:16:02;8.13;;;4.93;;
21354;SDS011;10835;50.148;19.760;2023-06-22T01:18:35;7.13;;;4.90;;
21354;SDS011;10835;50.148;19.760;2023-06-22T01:21:06;6.25;;;4.72;;
21354;SDS011;10835;50.148;19.760;2023-06-22T01:23:48;13.43;;;5.13;;
21354;SDS011;10835;50.148;19.760;2023-06-22T01:26:22;7.88;;;4.68;;
21354;SDS011;10835;50.148;19.760;2023-06-22T01:28:59;6.47;;;3.97;;
21354;SDS011;10835;50.148;19.760;2023-06-22T01:31:31;9.38;;;4.68;;
21354;SDS011;10835;50.148;19.760;2023-06-22T01:34:02;14.52;;;4.28;;
21354;SDS011;10835;50.148;19.760;2023-06-22T01:36:32;8.35;;;3.67;;
21354;SDS011;10835;50.148;19.760;2023-06-22T01:39:02;13.02;;;4.28;;
21354;SDS011;10835;50.148;19.760;2023-06-22T01:41:33;10.88;;;4.35;;
21354;SDS011;10835;50.148;19.760;2023-06-22T01:44:04;8.55;;;3.97;;
21354;SDS011;10835;50.148;19.760;2023-06-22T01:46:36;9.57;;;4.18;;
21354;SDS011;10835;50.148;19.760;2023-06-22T01:49:06;9.27;;;3.80;;
21354;SDS011;10835;50.148;19.760;2023-06-22T01:51:36;5.75;;;3.67;;
21354;SDS011;10835;50.148;19.760;2023-06-22T01:54:05;7.22;;;3.78;;
21354;SDS011;10835;50.148;19.760;2023-06-22T01:56:35;5.30;;;3.33;;
21354;SDS011;10835;50.148;19.760;2023-06-22T01:59:07;11.85;;;3.63;;
21354;SDS011;10835;50.148;19.760;2023-06-22T02:01:42;7.75;;;3.08;;
21354;SDS011;10835;50.148;19.760;2023-06-22T02:04:17;8.90;;;3.47;;
21354;SDS011;10835;50.148;19.760;2023-06-22T02:06:49;7.55;;;3.20;;
21354;SDS011;10835;50.148;19.760;2023-06-22T02:09:22;6.38;;;2.97;;
21354;SDS011;10835;50.148;19.760;2023-06-22T02:11:53;5.57;;;2.92;;
21354;SDS011;10835;50.148;19.760;2023-06-22T02:14:26;7.43;;;2.85;;
21354;SDS011;10835;50.148;19.760;2023-06-22T02:16:55;5.72;;;2.95;;
21354;SDS011;10835;50.148;19.760;2023-06-22T02:19:26;4.65;;;2.88;;
21354;SDS011;10835;50.148;19.760;2023-06-22T02:21:59;9.88;;;3.22;;
21354;SDS011;10835;50.148;19.760;2023-06-22T02:24:27;7.28;;;3.50;;
21354;SDS011;10835;50.148;19.760;2023-06-22T02:26:58;9.05;;;3.28;;
21354;SDS011;10835;50.148;19.760;2023-06-22T02:29:28;6.47;;;2.60;;
21354;SDS011;10835;50.148;19.760;2023-06-22T02:31:57;8.13;;;3.28;;
21354;SDS011;10835;50.148;19.760;2023-06-22T02:34:25;3.38;;;2.60;;
21354;SDS011;10835;50.148;19.760;2023-06-22T02:36:53;6.90;;;3.55;;
21354;SDS011;10835;50.148;19.760;2023-06-22T02:39:23;9.45;;;3.17;;
21354;SDS011;10835;50.148;19.760;2023-06-22T02:41:53;5.70;;;2.60;;
21354;SDS011;10835;50.148;19.760;2023-06-22T02:44:22;4.82;;;2.78;;
21354;SDS011;10835;50.148;19.760;2023-06-22T02:46:52;5.80;;;2.60;;
21354;SDS011;10835;50.148;19.760;2023-06-22T02:49:21;4.82;;;2.53;;
21354;SDS011;10835;50.148;19.760;2023-06-22T02:51:49;12.30;;;3.63;;
21354;SDS011;10835;50.148;19.760;2023-06-22T02:54:20;3.63;;;2.65;;
21354;SDS011;10835;50.148;19.760;2023-06-22T02:56:51;6.50;;;2.70;;
21354;SDS011;10835;50.148;19.760;2023-06-22T02:59:22;3.17;;;2.55;;
21354;SDS011;10835;50.148;19.760;2023-06-22T03:01:59;8.30;;;3.15;;
21354;SDS011;10835;50.148;19.760;2023-06-22T03:04:31;5.97;;;3.15;;
21354;SDS011;10835;50.148;19.760;2023-06-22T03:06:59;6.63;;;2.45;;
21354;SDS011;10835;50.148;19.760;2023-06-22T03:09:29;7.35;;;3.05;;
21354;SDS011;10835;50.148;19.760;2023-06-22T03:11:58;5.47;;;2.90;;
21354;SDS011;10835;50.148;19.760;2023-06-22T03:14:34;7.13;;;3.03;;
21354;SDS011;10835;50.148;19.760;2023-06-22T03:17:05;9.30;;;2.85;;
21354;SDS011;10835;50.148;19.760;2023-06-22T03:19:33;7.72;;;2.97;;
21354;SDS011;10835;50.148;19.760;2023-06-22T03:22:02;6.07;;;2.70;;
21354;SDS011;10835;50.148;19.760;2023-06-22T03:24:30;5.35;;;2.85;;
21354;SDS011;10835;50.148;19.760;2023-06-22T03:26:58;11.68;;;3.30;;
21354;SDS011;10835;50.148;19.760;2023-06-22T03:29:27;7.07;;;2.70;;
21354;SDS011;10835;50.148;19.760;2023-06-22T03:31:57;4.85;;;2.95;;
21354;SDS011;10835;50.148;19.760;2023-06-22T03:34:27;5.88;;;2.45;;
21354;SDS011;10835;50.148;19.760;2023-06-22T03:37:00;8.13;;;3.25;;
21354;SDS011;10835;50.148;19.760;2023-06-22T03:39:29;8.40;;;2.90;;
21354;SDS011;10835;50.148;19.760;2023-06-22T03:41:58;8.27;;;3.38;;
21354;SDS011;10835;50.148;19.760;2023-06-22T03:44:27;6.97;;;3.33;;
21354;SDS011;10835;50.148;19.760;2023-06-22T03:46:56;7.28;;;3.38;;
21354;SDS011;10835;50.148;19.760;2023-06-22T03:49:24;8.68;;;3.47;;
21354;SDS011;10835;50.148;19.760;2023-06-22T03:51:54;7.07;;;3.55;;
21354;SDS011;10835;50.148;19.760;2023-06-22T03:54:22;10.43;;;3.15;;
21354;SDS011;10835;50.148;19.760;2023-06-22T03:56:50;7.05;;;3.25;;
21354;SDS011;10835;50.148;19.760;2023-06-22T03:59:18;6.88;;;3.20;;
21354;SDS011;10835;50.148;19.760;2023-06-22T04:01:47;7.95;;;3.33;;
21354;SDS011;10835;50.148;19.760;2023-06-22T04:04:15;6.10;;;3.28;;
21354;SDS011;10835;50.148;19.760;2023-06-22T04:06:43;9.95;;;3.53;;
21354;SDS011;10835;50.148;19.760;2023-06-22T04:09:13;5.65;;;3.05;;
21354;SDS011;10835;50.148;19.760;2023-06-22T04:11:41;5.95;;;3.70;;
21354;SDS011;10835;50.148;19.760;2023-06-22T04:14:09;6.85;;;3.90;;
21354;SDS011;10835;50.148;19.760;2023-06-22T04:16:37;7.60;;;3.47;;
21354;SDS011;10835;50.148;19.760;2023-06-22T04:19:06;8.45;;;3.72;;
21354;SDS011;10835;50.148;19.760;2023-06-22T04:21:39;11.13;;;4.10;;
21354;SDS011;10835;50.148;19.760;2023-06-22T04:24:07;9.43;;;3.83;;
21354;SDS011;10835;50.148;19.760;2023-06-22T04:26:37;10.80;;;4.22;;
21354;SDS011;10835;50.148;19.760;2023-06-22T04:29:08;14.10;;;5.45;;
21354;SDS011;10835;50.148;19.760;2023-06-22T04:31:36;11.07;;;4.95;;
21354;SDS011;10835;50.148;19.760;2023-06-22T04:34:05;6.88;;;4.00;;
21354;SDS011;10835;50.148;19.760;2023-06-22T04:36:34;12.52;;;4.40;;
21354;SDS011;10835;50.148;19.760;2023-06-22T04:39:06;7.18;;;3.83;;
21354;SDS011;10835;50.148;19.760;2023-06-22T04:41:37;10.00;;;4.57;;
21354;SDS011;10835;50.148;19.760;2023-06-22T04:44:12;10.20;;;4.40;;
21354;SDS011;10835;50.148;19.760;2023-06-22T04:46:51;15.02;;;5.60;;
21354;SDS011;10835;50.148;19.760;2023-06-22T04:49:20;9.93;;;5.03;;
21354;SDS011;10835;50.148;19.760;2023-06-22T04:51:49;13.00;;;5.03;;
21354;SDS011;10835;50.148;19.760;2023-06-22T04:54:18;12.52;;;6.13;;
21354;SDS011;10835;50.148;19.760;2023-06-22T04:56:48;9.15;;;5.20;;
21354;SDS011;10835;50.148;19.760;2023-06-22T04:59:22;14.93;;;7.80;;
21354;SDS011;10835;50.148;19.760;2023-06-22T05:01:54;15.57;;;6.82;;
21354;SDS011;10835;50.148;19.760;2023-06-22T05:04:22;9.23;;;5.22;;
21354;SDS011;10835;50.148;19.760;2023-06-22T05:06:51;7.68;;;4.97;;
21354;SDS011;10835;50.148;19.760;2023-06-22T05:09:20;12.40;;;5.78;;
21354;SDS011;10835;50.148;19.760;2023-06-22T05:11:50;13.63;;;6.60;;
21354;SDS011;10835;50.148;19.760;2023-06-22T05:14:18;14.10;;;7.65;;
21354;SDS011;10835;50.148;19.760;2023-06-22T05:16:48;13.50;;;6.70;;
21354;SDS011;10835;50.148;19.760;2023-06-22T05:19:18;16.83;;;7.68;;
21354;SDS011;10835;50.148;19.760;2023-06-22T05:21:46;12.77;;;7.57;;
21354;SDS011;10835;50.148;19.760;2023-06-22T05:24:15;11.45;;;7.35;;
21354;SDS011;10835;50.148;19.760;2023-06-22T05:26:43;13.40;;;7.25;;
21354;SDS011;10835;50.148;19.760;2023-06-22T05:29:12;15.10;;;7.55;;
21354;SDS011;10835;50.148;19.760;2023-06-22T05:31:42;18.40;;;9.75;;
21354;SDS011;10835;50.148;19.760;2023-06-22T05:34:11;20.35;;;10.68;;
21354;SDS011;10835;50.148;19.760;2023-06-22T05:36:39;19.65;;;9.68;;
21354;SDS011;10835;50.148;19.760;2023-06-22T05:39:11;18.75;;;8.90;;
21354;SDS011;10835;50.148;19.760;2023-06-22T05:41:40;20.00;;;11.02;;
21354;SDS011;10835;50.148;19.760;2023-06-22T05:44:09;24.20;;;13.32;;
21354;SDS011;10835;50.148;19.760;2023-06-22T05:46:40;22.98;;;13.80;;
21354;SDS011;10835;50.148;19.760;2023-06-22T05:49:11;27.98;;;13.90;;
21354;SDS011;10835;50.148;19.760;2023-06-22T05:51:39;27.73;;;14.02;;
21354;SDS011;10835;50.148;19.760;2023-06-22T05:54:08;27.60;;;14.85;;
21354;SDS011;10835;50.148;19.760;2023-06-22T05:56:36;28.23;;;15.27;;
21354;SDS011;10835;50.148;19.760;2023-06-22T05:59:05;29.55;;;14.27;;
21354;SDS011;10835;50.148;19.760;2023-06-22T06:01:33;24.98;;;15.63;;
21354;SDS011;10835;50.148;19.760;2023-06-22T06:04:04;33.63;;;15.00;;
21354;SDS011;10835;50.148;19.760;2023-06-22T06:06:34;20.40;;;12.65;;
21354;SDS011;10835;50.148;19.760;2023-06-22T06:09:04;30.90;;;15.40;;
21354;SDS011;10835;50.148;19.760;2023-06-22T06:11:34;18.67;;;12.98;;
21354;SDS011;10835;50.148;19.760;2023-06-22T06:14:02;28.50;;;15.82;;
21354;SDS011;10835;50.148;19.760;2023-06-22T06:16:31;23.05;;;14.65;;
21354;SDS011;10835;50.148;19.760;2023-06-22T06:19:02;23.55;;;14.05;;
21354;SDS011;10835;50.148;19.760;2023-06-22T06:21:31;26.40;;;14.82;;
21354;SDS011;10835;50.148;19.760;2023-06-22T06:23:59;21.10;;;12.30;;
21354;SDS011;10835;50.148;19.760;2023-06-22T06:26:27;25.17;;;14.02;;
21354;SDS011;10835;50.148;19.760;2023-06-22T06:28:59;27.90;;;15.70;;
21354;SDS011;10835;50.148;19.760;2023-06-22T06:31:28;24.35;;;15.57;;
21354;SDS011;10835;50.148;19.760;2023-06-22T06:34:00;27.75;;;17.52;;
21354;SDS011;10835;50.148;19.760;2023-06-22T06:36:30;30.77;;;16.40;;
21354;SDS011;10835;50.148;19.760;2023-06-22T06:39:00;26.20;;;16.00;;
21354;SDS011;10835;50.148;19.760;2023-06-22T06:41:28;26.75;;;16.88;;
21354;SDS011;10835;50.148;19.760;2023-06-22T06:43:59;28.05;;;17.75;;
21354;SDS011;10835;50.148;19.760;2023-06-22T06:46:28;24.90;;;15.20;;
21354;SDS011;10835;50.148;19.760;2023-06-22T06:48:56;27.30;;;15.93;;
21354;SDS011;10835;50.148;19.760;2023-06-22T06:51:24;21.33;;;14.05;;
21354;SDS011;10835;50.148;19.760;2023-06-22T06:53:54;28.60;;;17.27;;
21354;SDS011;10835;50.148;19.760;2023-06-22T06:56:22;24.63;;;16.83;;
21354;SDS011;10835;50.148;19.760;2023-06-22T06:58:51;20.55;;;14.38;;
21354;SDS011;10835;50.148;19.760;2023-06-22T07:01:19;23.25;;;15.52;;
21354;SDS011;10835;50.148;19.760;2023-06-22T07:03:48;17.98;;;13.48;;
21354;SDS011;10835;50.148;19.760;2023-06-22T07:06:16;23.40;;;17.00;;
21354;SDS011;10835;50.148;19.760;2023-06-22T07:08:44;24.23;;;15.75;;
21354;SDS011;10835;50.148;19.760;2023-06-22T07:11:14;23.10;;;17.02;;
21354;SDS011;10835;50.148;19.760;2023-06-22T07:13:43;26.45;;;16.30;;
21354;SDS011;10835;50.148;19.760;2023-06-22T07:16:11;26.30;;;18.38;;
21354;SDS011;10835;50.148;19.760;2023-06-22T07:18:40;27.67;;;18.48;;
21354;SDS011;10835;50.148;19.760;2023-06-22T07:21:08;21.52;;;15.93;;
21354;SDS011;10835;50.148;19.760;2023-06-22T07:23:36;22.75;;;15.90;;
21354;SDS011;10835;50.148;19.760;2023-06-22T07:26:05;23.45;;;15.68;;
21354;SDS011;10835;50.148;19.760;2023-06-22T07:28:36;19.85;;;14.20;;
21354;SDS011;10835;50.148;19.760;2023-06-22T07:31:04;20.98;;;14.75;;
21354;SDS011;10835;50.148;19.760;2023-06-22T07:33:32;17.92;;;13.85;;
21354;SDS011;10835;50.148;19.760;2023-06-22T07:36:01;20.50;;;14.73;;
21354;SDS011;10835;50.148;19.760;2023-06-22T07:38:34;19.25;;;14.43;;
21354;SDS011;10835;50.148;19.760;2023-06-22T07:41:02;18.98;;;13.75;;
21354;SDS011;10835;50.148;19.760;2023-06-22T07:43:32;19.45;;;13.55;;
21354;SDS011;10835;50.148;19.760;2023-06-22T07:46:02;22.15;;;14.18;;
21354;SDS011;10835;50.148;19.760;2023-06-22T07:48:30;15.93;;;12.95;;
21354;SDS011;10835;50.148;19.760;2023-06-22T07:50:59;17.05;;;13.20;;
21354;SDS011;10835;50.148;19.760;2023-06-22T07:53:27;18.25;;;12.68;;
21354;SDS011;10835;50.148;19.760;2023-06-22T07:55:55;16.50;;;12.98;;
21354;SDS011;10835;50.148;19.760;2023-06-22T07:58:24;17.52;;;12.57;;
21354;SDS011;10835;50.148;19.760;2023-06-22T08:00:57;15.10;;;12.55;;
21354;SDS011;10835;50.148;19.760;2023-06-22T08:03:26;12.90;;;10.80;;
21354;SDS011;10835;50.148;19.760;2023-06-22T08:05:55;14.05;;;11.52;;
21354;SDS011;10835;50.148;19.760;2023-06-22T08:08:23;15.32;;;12.35;;
21354;SDS011;10835;50.148;19.760;2023-06-22T08:10:52;16.73;;;12.32;;
21354;SDS011;10835;50.148;19.760;2023-06-22T08:13:20;16.67;;;10.68;;
21354;SDS011;10835;50.148;19.760;2023-06-22T08:15:48;14.35;;;10.82;;
21354;SDS011;10835;50.148;19.760;2023-06-22T08:18:16;15.55;;;11.98;;
21354;SDS011;10835;50.148;19.760;2023-06-22T08:20:46;16.92;;;11.70;;
21354;SDS011;10835;50.148;19.760;2023-06-22T08:23:14;14.98;;;11.32;;
21354;SDS011;10835;50.148;19.760;2023-06-22T08:25:43;16.92;;;12.55;;
21354;SDS011;10835;50.148;19.760;2023-06-22T08:28:11;14.10;;;11.65;;
21354;SDS011;10835;50.148;19.760;2023-06-22T08:30:40;11.77;;;10.55;;
21354;SDS011;10835;50.148;19.760;2023-06-22T08:33:08;11.88;;;10.18;;
21354;SDS011;10835;50.148;19.760;2023-06-22T08:35:42;13.15;;;10.13;;
21354;SDS011;10835;50.148;19.760;2023-06-22T08:38:12;11.57;;;9.40;;
21354;SDS011;10835;50.148;19.760;2023-06-22T08:40:45;11.00;;;8.38;;
21354;SDS011;10835;50.148;19.760;2023-06-22T08:43:16;12.15;;;8.50;;
21354;SDS011;10835;50.148;19.760;2023-06-22T08:45:48;10.75;;;8.55;;
21354;SDS011;10835;50.148;19.760;2023-06-22T08:48:16;13.32;;;8.52;;
21354;SDS011;10835;50.148;19.760;2023-06-22T08:50:47;10.35;;;8.25;;
21354;SDS011;10835;50.148;19.760;2023-06-22T08:53:16;10.55;;;8.43;;
21354;SDS011;10835;50.148;19.760;2023-06-22T08:55:45;11.48;;;7.57;;
21354;SDS011;10835;50.148;19.760;2023-06-22T08:58:17;9.73;;;8.18;;
21354;SDS011;10835;50.148;19.760;2023-06-22T09:00:46;11.80;;;7.65;;
21354;SDS011;10835;50.148;19.760;2023-06-22T09:03:15;8.57;;;7.35;;
21354;SDS011;10835;50.148;19.760;2023-06-22T09:05:43;9.93;;;7.90;;
21354;SDS011;10835;50.148;19.760;2023-06-22T09:08:12;9.70;;;6.50;;
21354;SDS011;10835;50.148;19.760;2023-06-22T09:10:41;9.20;;;6.82;;
21354;SDS011;10835;50.148;19.760;2023-06-22T09:13:10;8.95;;;7.38;;
21354;SDS011;10835;50.148;19.760;2023-06-22T09:15:38;8.27;;;7.05;;
21354;SDS011;10835;50.148;19.760;2023-06-22T09:18:06;8.90;;;6.13;;
21354;SDS011;10835;50.148;19.760;2023-06-22T09:20:37;10.00;;;6.88;;
21354;SDS011;10835;50.148;19.760;2023-06-22T09:23:06;7.93;;;6.50;;
21354;SDS011;10835;50.148;19.760;2023-06-22T09:25:34;9.38;;;7.03;;
21354;SDS011;10835;50.148;19.760;2023-06-22T09:28:04;11.15;;;6.93;;
21354;SDS011;10835;50.148;19.760;2023-06-22T09:30:32;7.00;;;6.13;;
21354;SDS011;10835;50.148;19.760;2023-06-22T09:33:00;9.23;;;7.10;;
21354;SDS011;10835;50.148;19.760;2023-06-22T09:35:29;8.40;;;6.90;;
21354;SDS011;10835;50.148;19.760;2023-06-22T09:37:57;9.60;;;7.05;;
21354;SDS011;10835;50.148;19.760;2023-06-22T09:40:25;9.35;;;6.57;;
21354;SDS011;10835;50.148;19.760;2023-06-22T09:42:54;10.95;;;6.88;;
21354;SDS011;10835;50.148;19.760;2023-06-22T09:45:24;8.73;;;6.57;;
21354;SDS011;10835;50.148;19.760;2023-06-22T09:47:54;7.15;;;6.45;;
21354;SDS011;10835;50.148;19.760;2023-06-22T09:50:22;8.23;;;6.55;;
21354;SDS011;10835;50.148;19.760;2023-06-22T09:52:51;8.10;;;6.22;;
21354;SDS011;10835;50.148;19.760;2023-06-22T09:55:24;7.72;;;6.93;;
21354;SDS011;10835;50.148;19.760;2023-06-22T09:57:54;7.65;;;6.13;;
21354;SDS011;10835;50.148;19.760;2023-06-22T10:00:23;8.93;;;6.18;;
21354;SDS011;10835;50.148;19.760;2023-06-22T10:02:53;9.00;;;6.40;;
21354;SDS011;10835;50.148;19.760;2023-06-22T10:05:26;8.75;;;6.95;;
21354;SDS011;10835;50.148;19.760;2023-06-22T10:07:55;6.88;;;6.18;;
21354;SDS011;10835;50.148;19.760;2023-06-22T10:10:23;7.45;;;6.13;;
21354;SDS011;10835;50.148;19.760;2023-06-22T10:12:54;7.18;;;6.47;;
21354;SDS011;10835;50.148;19.760;2023-06-22T10:15:25;8.07;;;6.57;;
21354;SDS011;10835;50.148;19.760;2023-06-22T10:17:54;7.85;;;5.97;;
21354;SDS011;10835;50.148;19.760;2023-06-22T10:20:25;7.60;;;6.00;;
21354;SDS011;10835;50.148;19.760;2023-06-22T10:22:54;7.90;;;6.22;;
21354;SDS011;10835;50.148;19.760;2023-06-22T10:25:26;7.70;;;6.00;;
21354;SDS011;10835;50.148;19.760;2023-06-22T10:27:55;7.25;;;5.90;;
21354;SDS011;10835;50.148;19.760;2023-06-22T10:30:26;6.70;;;5.70;;
21354;SDS011;10835;50.148;19.760;2023-06-22T10:32:55;6.28;;;5.68;;
21354;SDS011;10835;50.148;19.760;2023-06-22T10:35:23;7.97;;;5.68;;
21354;SDS011;10835;50.148;19.760;2023-06-22T10:37:52;9.95;;;5.93;;
21354;SDS011;10835;50.148;19.760;2023-06-22T10:40:21;7.15;;;6.07;;
21354;SDS011;10835;50.148;19.760;2023-06-22T10:42:49;6.78;;;6.03;;
21354;SDS011;10835;50.148;19.760;2023-06-22T10:45:17;6.88;;;5.72;;
21354;SDS011;10835;50.148;19.760;2023-06-22T10:47:50;6.43;;;5.70;;
21354;SDS011;10835;50.148;19.760;2023-06-22T10:50:18;7.43;;;5.65;;
21354;SDS011;10835;50.148;19.760;2023-06-22T10:52:47;6.35;;;5.45;;
21354;SDS011;10835;50.148;19.760;2023-06-22T10:55:18;6.07;;;5.13;;
21354;SDS011;10835;50.148;19.760;2023-06-22T10:57:46;7.15;;;5.88;;
21354;SDS011;10835;50.148;19.760;2023-06-22T11:00:15;7.13;;;5.97;;
21354;SDS011;10835;50.148;19.760;2023-06-22T11:02:43;10.18;;;6.03;;
21354;SDS011;10835;50.148;19.760;2023-06-22T11:05:13;7.72;;;6.10;;
21354;SDS011;10835;50.148;19.760;2023-06-22T11:07:42;6.78;;;5.70;;
21354;SDS011;10835;50.148;19.760;2023-06-22T11:10:12;5.43;;;4.85;;
21354;SDS011;10835;50.148;19.760;2023-06-22T11:12:41;6.45;;;5.80;;
21354;SDS011;10835;50.148;19.760;2023-06-22T11:15:10;6.35;;;5.43;;
21354;SDS011;10835;50.148;19.760;2023-06-22T11:17:38;8.70;;;6.30;;
21354;SDS011;10835;50.148;19.760;2023-06-22T11:20:07;6.35;;;4.97;;
21354;SDS011;10835;50.148;19.760;2023-06-22T11:22:39;5.95;;;5.13;;
21354;SDS011;10835;50.148;19.760;2023-06-22T11:25:08;8.63;;;5.43;;
21354;SDS011;10835;50.148;19.760;2023-06-22T11:27:38;9.50;;;5.75;;
21354;SDS011;10835;50.148;19.760;2023-06-22T11:30:06;6.32;;;5.13;;
21354;SDS011;10835;50.148;19.760;2023-06-22T11:32:36;6.63;;;5.50;;
21354;SDS011;10835;50.148;19.760;2023-06-22T11:35:04;6.50;;;5.85;;
21354;SDS011;10835;50.148;19.760;2023-06-22T11:37:33;6.95;;;5.53;;
21354;SDS011;10835;50.148;19.760;2023-06-22T11:40:03;6.20;;;5.28;;
21354;SDS011;10835;50.148;19.760;2023-06-22T11:42:37;6.10;;;5.40;;
21354;SDS011;10835;50.148;19.760;2023-06-22T11:45:06;6.32;;;5.10;;
21354;SDS011;10835;50.148;19.760;2023-06-22T11:47:35;7.25;;;5.72;;
21354;SDS011;10835;50.148;19.760;2023-06-22T11:50:04;8.35;;;5.00;;
21354;SDS011;10835;50.148;19.760;2023-06-22T11:52:33;7.75;;;5.63;;
21354;SDS011;10835;50.148;19.760;2023-06-22T11:55:05;6.22;;;5.32;;
21354;SDS011;10835;50.148;19.760;2023-06-22T11:57:35;6.32;;;5.43;;
21354;SDS011;10835;50.148;19.760;2023-06-22T12:00:04;7.95;;;5.53;;
21354;SDS011;10835;50.148;19.760;2023-06-22T12:02:44;6.03;;;5.15;;
21354;SDS011;10835;50.148;19.760;2023-06-22T12:05:13;9.07;;;5.75;;
21354;SDS011;10835;50.148;19.760;2023-06-22T12:07:41;6.35;;;5.50;;
21354;SDS011;10835;50.148;19.760;2023-06-22T12:10:11;5.85;;;5.25;;
21354;SDS011;10835;50.148;19.760;2023-06-22T12:12:39;7.15;;;5.45;;
21354;SDS011;10835;50.148;19.760;2023-06-22T12:15:09;12.32;;;5.72;;
21354;SDS011;10835;50.148;19.760;2023-06-22T12:17:38;7.28;;;5.55;;
21354;SDS011;10835;50.148;19.760;2023-06-22T12:20:07;6.60;;;5.82;;
21354;SDS011;10835;50.148;19.760;2023-06-22T12:22:37;6.50;;;5.15;;
21354;SDS011;10835;50.148;19.760;2023-06-22T12:25:05;6.03;;;5.00;;
21354;SDS011;10835;50.148;19.760;2023-06-22T12:27:36;7.38;;;4.85;;
21354;SDS011;10835;50.148;19.760;2023-06-22T12:30:04;11.52;;;5.90;;
21354;SDS011;10835;50.148;19.760;2023-06-22T12:32:33;7.63;;;5.72;;
21354;SDS011;10835;50.148;19.760;2023-06-22T12:35:01;6.20;;;5.55;;
21354;SDS011;10835;50.148;19.760;2023-06-22T12:37:30;7.00;;;5.47;;
21354;SDS011;10835;50.148;19.760;2023-06-22T12:40:02;7.50;;;5.97;;
21354;SDS011;10835;50.148;19.760;2023-06-22T12:42:31;7.82;;;6.00;;
21354;SDS011;10835;50.148;19.760;2023-06-22T12:45:01;6.70;;;5.55;;
21354;SDS011;10835;50.148;19.760;2023-06-22T12:47:30;7.43;;;5.60;;
21354;SDS011;10835;50.148;19.760;2023-06-22T12:49:59;5.90;;;5.30;;
21354;SDS011;10835;50.148;19.760;2023-06-22T12:52:29;7.05;;;5.63;;
21354;SDS011;10835;50.148;19.760;2023-06-22T12:54:58;9.30;;;5.07;;
21354;SDS011;10835;50.148;19.760;2023-06-22T12:57:27;6.57;;;5.15;;
21354;SDS011;10835;50.148;19.760;2023-06-22T12:59:55;7.07;;;6.07;;
21354;SDS011;10835;50.148;19.760;2023-06-22T13:02:26;6.38;;;5.68;;
21354;SDS011;10835;50.148;19.760;2023-06-22T13:04:54;6.35;;;5.50;;
21354;SDS011;10835;50.148;19.760;2023-06-22T13:07:23;7.22;;;5.45;;
21354;SDS011;10835;50.148;19.760;2023-06-22T13:09:52;6.38;;;5.13;;
21354;SDS011;10835;50.148;19.760;2023-06-22T13:12:20;6.60;;;5.63;;
21354;SDS011;10835;50.148;19.760;2023-06-22T13:14:49;6.35;;;5.22;;
21354;SDS011;10835;50.148;19.760;2023-06-22T13:17:17;6.75;;;5.25;;
21354;SDS011;10835;50.148;19.760;2023-06-22T13:19:50;6.80;;;5.25;;
21354;SDS011;10835;50.148;19.760;2023-06-22T13:22:28;9.50;;;6.13;;
21354;SDS011;10835;50.148;19.760;2023-06-22T13:24:58;6.53;;;5.10;;
21354;SDS011;10835;50.148;19.760;2023-06-22T13:27:27;5.97;;;5.38;;
21354;SDS011;10835;50.148;19.760;2023-06-22T13:29:55;7.60;;;5.90;;
21354;SDS011;10835;50.148;19.760;2023-06-22T13:32:24;7.85;;;5.03;;
21354;SDS011;10835;50.148;19.760;2023-06-22T13:34:53;6.28;;;5.05;;
21354;SDS011;10835;50.148;19.760;2023-06-22T13:37:22;6.95;;;5.00;;
21354;SDS011;10835;50.148;19.760;2023-06-22T13:39:50;6.70;;;5.40;;
21354;SDS011;10835;50.148;19.760;2023-06-22T13:42:18;6.78;;;5.32;;
21354;SDS011;10835;50.148;19.760;2023-06-22T13:44:47;5.93;;;5.32;;
21354;SDS011;10835;50.148;19.760;2023-06-22T13:47:15;6.47;;;5.05;;
21354;SDS011;10835;50.148;19.760;2023-06-22T13:49:43;6.68;;;5.13;;
21354;SDS011;10835;50.148;19.760;2023-06-22T13:52:13;6.40;;;5.55;;
21354;SDS011;10835;50.148;19.760;2023-06-22T13:54:43;6.47;;;5.40;;
21354;SDS011;10835;50.148;19.760;2023-06-22T13:57:12;8.00;;;4.97;;
21354;SDS011;10835;50.148;19.760;2023-06-22T13:59:42;6.55;;;4.50;;
21354;SDS011;10835;50.148;19.760;2023-06-22T14:02:10;5.55;;;4.78;;
21354;SDS011;10835;50.148;19.760;2023-06-22T14:04:39;5.75;;;4.93;;
21354;SDS011;10835;50.148;19.760;2023-06-22T14:07:07;11.05;;;5.13;;
21354;SDS011;10835;50.148;19.760;2023-06-22T14:09:37;7.32;;;4.85;;
21354;SDS011;10835;50.148;19.760;2023-06-22T14:12:05;5.93;;;5.15;;
21354;SDS011;10835;50.148;19.760;2023-06-22T14:14:34;7.18;;;5.35;;
21354;SDS011;10835;50.148;19.760;2023-06-22T14:17:03;7.95;;;5.25;;
21354;SDS011;10835;50.148;19.760;2023-06-22T14:19:32;8.70;;;5.63;;
21354;SDS011;10835;50.148;19.760;2023-06-22T14:22:00;9.32;;;4.78;;
21354;SDS011;10835;50.148;19.760;2023-06-22T14:24:28;6.18;;;5.38;;
21354;SDS011;10835;50.148;19.760;2023-06-22T14:26:58;8.48;;;5.95;;
21354;SDS011;10835;50.148;19.760;2023-06-22T14:29:29;6.18;;;5.20;;
21354;SDS011;10835;50.148;19.760;2023-06-22T14:31:57;6.88;;;5.72;;
21354;SDS011;10835;50.148;19.760;2023-06-22T14:34:26;9.68;;;5.60;;
21354;SDS011;10835;50.148;19.760;2023-06-22T14:36:54;9.02;;;5.65;;
21354;SDS011;10835;50.148;19.760;2023-06-22T14:39:23;6.57;;;5.85;;